West Bend, Wisconsin
Current Conditions -  °F | °C
As of 12:35 AM on Thursday 27 Nov 2014 (Local Time) from KETB Reporting Station
Haze Haze  
Wind Chill: -10°   Ceiling: 4400
Heat Index: -6°   Visibility: 5mi
Dew Point: -8°   Wind: 5mph
Humidity: 86%   Direction: 300°WNW
Pressure: 30.19"   Gusts: NA
Location:  43.41°N, 88.18°W
Report Text: KETB 270635Z AUTO 30004KT 5SM BR SCT016 SCT025 OVC044 M06/M08 A3019 RMK AO2
Loading
Personal Weather Stations






























Interactive Weather Map New forecast layout! Learn more

10-Day Weather Forecast

Advertisements
Track Severe Weather on mobile